Time,TemperatureF,DewpointF,PressureIn,WindDirection,WindDirectionDegrees,WindSpeedMPH,WindSpeedGustMPH,Humidity,HourlyPrecipIn,Conditions,Clouds,dailyrainin,SoftwareType,DateUTC
2013-03-16 00:02:00,64.0,44.0,-100.00,WNW,290,3.0,5.0,48,-99.99,,,-99.99,,2013-03-16 05:02:00,
2013-03-16 00:12:00,63.0,45.0,-100.00,WNW,295,4.0,7.0,50,-99.99,,,-99.99,,2013-03-16 05:12:00,
2013-03-16 00:22:00,63.0,45.0,-100.00,WNW,295,4.0,7.0,50,-99.99,,,-99.99,,2013-03-16 05:22:00,
2013-03-16 00:32:00,65.0,44.0,-100.00,WNW,295,6.0,13.0,48,-99.99,,,-99.99,,2013-03-16 05:32:00,
2013-03-16 00:42:00,66.0,44.0,-100.00,WNW,300,8.0,13.0,45,-99.99,,,-99.99,,2013-03-16 05:42:00,
2013-03-16 00:52:00,66.0,44.0,-100.00,WNW,300,8.0,13.0,45,-99.99,,,-99.99,,2013-03-16 05:52:00,
2013-03-16 01:02:00,67.0,44.0,-100.00,WNW,300,9.0,14.0,44,-99.99,,,-99.99,,2013-03-16 06:02:00,
2013-03-16 01:12:00,67.0,45.0,-100.00,WNW,300,9.0,15.0,44,-99.99,,,-99.99,,2013-03-16 06:12:00,
2013-03-16 01:22:00,67.0,45.0,-100.00,WNW,300,9.0,15.0,44,-99.99,,,-99.99,,2013-03-16 06:22:00,
2013-03-16 01:32:00,67.0,45.0,-100.00,WNW,295,12.0,17.0,44,-99.99,,,-99.99,,2013-03-16 06:32:00,
2013-03-16 01:42:00,67.0,45.0,-100.00,WNW,300,11.0,19.0,44,-99.99,,,-99.99,,2013-03-16 06:42:00,
2013-03-16 01:52:00,67.0,45.0,-100.00,WNW,300,11.0,19.0,44,-99.99,,,-99.99,,2013-03-16 06:52:00,
2013-03-16 02:02:00,67.0,45.0,-100.00,WNW,300,10.0,20.0,45,-99.99,,,-99.99,,2013-03-16 07:02:00,
2013-03-16 02:12:00,67.0,46.0,-100.00,WNW,300,10.0,17.0,46,-99.99,,,-99.99,,2013-03-16 07:12:00,
2013-03-16 02:22:00,67.0,46.0,-100.00,WNW,300,10.0,17.0,46,-99.99,,,-99.99,,2013-03-16 07:22:00,
2013-03-16 02:30:00,67.0,46.0,-100.00,WNW,300,15.0,20.0,47,-99.99,,,-99.99,,2013-03-16 07:30:00,
2013-03-16 02:32:00,67.0,46.0,-100.00,WNW,300,9.0,17.0,47,-99.99,,,-99.99,,2013-03-16 07:32:00,
2013-03-16 02:42:00,66.0,46.0,-100.00,WNW,300,11.0,16.0,48,-99.99,,,-99.99,,2013-03-16 07:42:00,
2013-03-16 02:52:00,66.0,46.0,-100.00,WNW,300,11.0,16.0,48,-99.99,,,-99.99,,2013-03-16 07:52:00,
2013-03-16 03:02:00,67.0,46.0,-100.00,WNW,300,12.0,22.0,48,-99.99,,,-99.99,,2013-03-16 08:02:00,
2013-03-16 03:12:00,67.0,46.0,-100.00,WNW,300,15.0,20.0,47,-99.99,,,-99.99,,2013-03-16 08:12:00,
2013-03-16 03:23:00,67.0,46.0,-100.00,WNW,300,15.0,20.0,47,-99.99,,,-99.99,,2013-03-16 08:23:00,
2013-03-16 03:42:00,66.0,45.0,-100.00,WNW,300,15.0,22.0,47,-99.99,,,-99.99,,2013-03-16 08:42:00,
2013-03-16 03:52:00,66.0,45.0,-100.00,WNW,300,15.0,22.0,47,-99.99,,,-99.99,,2013-03-16 08:52:00,
2013-03-16 04:02:00,66.0,46.0,-100.00,WNW,300,10.0,19.0,48,-99.99,,,-99.99,,2013-03-16 09:02:00,
2013-03-16 04:12:00,66.0,45.0,-100.00,WNW,300,13.0,21.0,48,-99.99,,,-99.99,,2013-03-16 09:12:00,
2013-03-16 04:22:00,66.0,45.0,-100.00,WNW,300,13.0,21.0,48,-99.99,,,-99.99,,2013-03-16 09:22:00,
2013-03-16 04:33:00,65.0,45.0,-100.00,WNW,300,10.0,20.0,48,-99.99,,,-99.99,,2013-03-16 09:33:00,
2013-03-16 04:42:00,65.0,45.0,-100.00,NW,310,9.0,19.0,49,-99.99,,,-99.99,,2013-03-16 09:42:00,
2013-03-16 04:52:00,65.0,45.0,-100.00,NW,310,9.0,19.0,49,-99.99,,,-99.99,,2013-03-16 09:52:00,
2013-03-16 05:03:00,65.0,45.0,-100.00,NW,305,12.0,20.0,49,-99.99,,,-99.99,,2013-03-16 10:03:00,
2013-03-16 05:12:00,65.0,46.0,-100.00,NW,310,8.0,17.0,50,-99.99,,,-99.99,,2013-03-16 10:12:00,
2013-03-16 05:23:00,65.0,46.0,-100.00,NW,310,8.0,17.0,50,-99.99,,,-99.99,,2013-03-16 10:23:00,
2013-03-16 05:32:00,63.0,46.0,-100.00,NW,310,6.0,15.0,52,-99.99,,,-99.99,,2013-03-16 10:32:00,
2013-03-16 05:42:00,62.0,46.0,-100.00,NW,310,6.0,15.0,54,-99.99,,,-99.99,,2013-03-16 10:42:00,
2013-03-16 05:52:00,62.0,46.0,-100.00,NW,310,6.0,15.0,54,-99.99,,,-99.99,,2013-03-16 10:52:00,
2013-03-16 06:03:00,62.0,45.0,-100.00,NW,315,4.0,9.0,55,-99.99,,,-99.99,,2013-03-16 11:03:00,
2013-03-16 06:12:00,61.0,45.0,-100.00,NW,310,4.0,9.0,56,-99.99,,,-99.99,,2013-03-16 11:12:00,
2013-03-16 06:22:00,61.0,45.0,-100.00,NW,310,4.0,9.0,56,-99.99,,,-99.99,,2013-03-16 11:22:00,
2013-03-16 06:32:00,61.0,45.0,-100.00,NW,305,4.0,7.0,56,-99.99,,,-99.99,,2013-03-16 11:32:00,
2013-03-16 06:43:00,61.0,45.0,-100.00,NW,305,3.0,7.0,57,-99.99,,,-99.99,,2013-03-16 11:43:00,
2013-03-16 06:52:00,61.0,45.0,-100.00,NW,305,3.0,7.0,57,-99.99,,,-99.99,,2013-03-16 11:52:00,
2013-03-16 07:02:00,60.0,45.0,-100.00,SW,235,1.0,5.0,59,-99.99,,,-99.99,,2013-03-16 12:02:00,
2013-03-16 07:12:00,58.0,45.0,-100.00,SE,130,1.0,4.0,62,-99.99,,,-99.99,,2013-03-16 12:12:00,
2013-03-16 07:22:00,58.0,45.0,-100.00,SE,130,1.0,4.0,62,-99.99,,,-99.99,,2013-03-16 12:22:00,
2013-03-16 07:32:00,55.0,44.0,-100.00,NW,315,2.0,5.0,67,-99.99,,,-99.99,,2013-03-16 12:32:00,
2013-03-16 07:42:00,56.0,45.0,-100.00,NW,315,3.0,6.0,66,-99.99,,,-99.99,,2013-03-16 12:42:00,
2013-03-16 07:52:00,56.0,45.0,-100.00,NW,315,3.0,6.0,66,-99.99,,,-99.99,,2013-03-16 12:52:00,
2013-03-16 08:02:00,54.0,44.0,-100.00,NW,315,0.0,4.0,70,-99.99,,,-99.99,,2013-03-16 13:02:00,
2013-03-16 08:12:00,53.0,45.0,-100.00,NW,320,1.0,2.0,72,-99.99,,,-99.99,,2013-03-16 13:12:00,
2013-03-16 08:22:00,53.0,45.0,-100.00,NW,320,1.0,2.0,72,-99.99,,,-99.99,,2013-03-16 13:22:00,
2013-03-16 08:32:00,54.0,46.0,-100.00,NW,320,6.0,10.0,73,-99.99,,,-99.99,,2013-03-16 13:32:00,
2013-03-16 08:42:00,55.0,46.0,-100.00,NW,320,6.0,12.0,71,-99.99,,,-99.99,,2013-03-16 13:42:00,
2013-03-16 08:52:00,55.0,46.0,-100.00,NW,320,6.0,12.0,71,-99.99,,,-99.99,,2013-03-16 13:52:00,
2013-03-16 09:02:00,55.0,46.0,-100.00,NW,315,7.0,10.0,73,-99.99,,,-99.99,,2013-03-16 14:02:00,
2013-03-16 09:12:00,54.0,46.0,-100.00,NW,320,13.0,20.0,74,-99.99,,,-99.99,,2013-03-16 14:12:00,
2013-03-16 09:22:00,54.0,46.0,-100.00,NW,320,13.0,20.0,74,-99.99,,,-99.99,,2013-03-16 14:22:00,
2013-03-16 09:32:00,53.0,45.0,-100.00,NW,320,12.0,20.0,75,-99.99,,,-99.99,,2013-03-16 14:32:00,
2013-03-16 09:42:00,53.0,44.0,-100.00,NW,320,9.0,21.0,74,-99.99,,,-99.99,,2013-03-16 14:42:00,
2013-03-16 09:52:00,53.0,44.0,-100.00,NW,320,9.0,21.0,74,-99.99,,,-99.99,,2013-03-16 14:52:00,
2013-03-16 10:02:00,53.0,44.0,-100.00,NW,320,13.0,20.0,73,-99.99,,,-99.99,,2013-03-16 15:02:00,
2013-03-16 10:12:00,52.0,44.0,-100.00,NW,320,11.0,20.0,73,-99.99,,,-99.99,,2013-03-16 15:12:00,
2013-03-16 10:22:00,52.0,44.0,-100.00,NW,320,11.0,20.0,73,-99.99,,,-99.99,,2013-03-16 15:22:00,
2013-03-16 10:33:00,52.0,43.0,-100.00,NW,320,12.0,17.0,72,-99.99,,,-99.99,,2013-03-16 15:33:00,
2013-03-16 10:43:00,51.0,42.0,-100.00,NW,320,12.0,21.0,72,-99.99,,,-99.99,,2013-03-16 15:43:00,
2013-03-16 10:53:00,51.0,42.0,-100.00,NW,320,12.0,21.0,72,-99.99,,,-99.99,,2013-03-16 15:53:00,
2013-03-16 11:03:00,52.0,42.0,-100.00,NW,320,10.0,15.0,70,-99.99,,,-99.99,,2013-03-16 16:03:00,
2013-03-16 11:12:00,51.0,42.0,-100.00,NW,320,8.0,17.0,71,-99.99,,,-99.99,,2013-03-16 16:12:00,
2013-03-16 11:22:00,51.0,42.0,-100.00,NW,320,8.0,17.0,71,-99.99,,,-99.99,,2013-03-16 16:22:00,
2013-03-16 11:30:00,51.0,41.0,-100.00,NW,325,8.0,13.0,68,-99.99,,,-99.99,,2013-03-16 16:30:00,
2013-03-16 11:33:00,51.0,41.0,-100.00,NW,320,7.0,14.0,71,-99.99,,,-99.99,,2013-03-16 16:33:00,
2013-03-16 11:42:00,51.0,42.0,-100.00,NW,320,5.0,14.0,71,-99.99,,,-99.99,,2013-03-16 16:42:00,
2013-03-16 11:52:00,51.0,42.0,-100.00,NW,320,5.0,14.0,71,-99.99,,,-99.99,,2013-03-16 16:52:00,
2013-03-16 12:03:00,52.0,41.0,-100.00,NW,320,9.0,14.0,67,-99.99,,,-99.99,,2013-03-16 17:03:00,
2013-03-16 12:13:00,51.0,41.0,-100.00,NW,325,8.0,13.0,68,-99.99,,,-99.99,,2013-03-16 17:13:00,
2013-03-16 12:23:00,51.0,41.0,-100.00,NW,325,8.0,13.0,68,-99.99,,,-99.99,,2013-03-16 17:23:00,
2013-03-16 12:43:00,51.0,41.0,-100.00,NW,320,7.0,15.0,68,-99.99,,,-99.99,,2013-03-16 17:43:00,
2013-03-16 12:53:00,51.0,41.0,-100.00,NW,320,7.0,15.0,68,-99.99,,,-99.99,,2013-03-16 17:53:00,
2013-03-16 13:02:00,51.0,40.0,-100.00,NW,320,8.0,14.0,67,-99.99,,,-99.99,,2013-03-16 18:02:00,
2013-03-16 13:13:00,50.0,39.0,-100.00,NW,325,6.0,18.0,67,-99.99,,,-99.99,,2013-03-16 18:13:00,
2013-03-16 13:23:00,50.0,39.0,-100.00,NW,325,6.0,18.0,67,-99.99,,,-99.99,,2013-03-16 18:23:00,
2013-03-16 13:33:00,52.0,40.0,-100.00,NW,320,7.0,12.0,65,-99.99,,,-99.99,,2013-03-16 18:33:00,
2013-03-16 13:43:00,52.0,40.0,-100.00,NW,320,7.0,16.0,64,-99.99,,,-99.99,,2013-03-16 18:43:00,
2013-03-16 13:52:00,52.0,40.0,-100.00,NW,320,7.0,16.0,64,-99.99,,,-99.99,,2013-03-16 18:52:00,
2013-03-16 14:02:00,50.0,39.0,-100.00,NW,320,5.0,16.0,66,-99.99,,,-99.99,,2013-03-16 19:02:00,
2013-03-16 14:12:00,50.0,39.0,-100.00,South,170,10.0,16.0,65,-99.99,,,-99.99,,2013-03-16 19:12:00,
2013-03-16 14:22:00,50.0,39.0,-100.00,South,170,10.0,16.0,65,-99.99,,,-99.99,,2013-03-16 19:22:00,
2013-03-16 14:32:00,51.0,38.0,-100.00,NW,320,6.0,13.0,63,-99.99,,,-99.99,,2013-03-16 19:32:00,
2013-03-16 14:42:00,51.0,39.0,-100.00,NW,320,9.0,14.0,64,-99.99,,,-99.99,,2013-03-16 19:42:00,
2013-03-16 14:52:00,51.0,39.0,-100.00,NW,320,9.0,14.0,64,-99.99,,,-99.99,,2013-03-16 19:52:00,
2013-03-16 15:02:00,49.0,38.0,-100.00,NW,320,9.0,19.0,64,-99.99,,,-99.99,,2013-03-16 20:02:00,
2013-03-16 15:12:00,48.0,37.0,-100.00,NW,325,9.0,17.0,66,-99.99,,,-99.99,,2013-03-16 20:12:00,
2013-03-16 15:22:00,48.0,37.0,-100.00,NW,325,9.0,17.0,66,-99.99,,,-99.99,,2013-03-16 20:22:00,
2013-03-16 15:32:00,47.0,38.0,-100.00,NW,320,9.0,17.0,69,-99.99,,,-99.99,,2013-03-16 20:32:00,
2013-03-16 15:42:00,47.0,38.0,-100.00,NW,325,6.0,12.0,71,-99.99,,,-99.99,,2013-03-16 20:42:00,
2013-03-16 15:52:00,47.0,38.0,-100.00,NW,325,6.0,12.0,71,-99.99,,,-99.99,,2013-03-16 20:52:00,
2013-03-16 16:02:00,46.0,37.0,-100.00,SSE,155,9.0,13.0,71,-99.99,,,-99.99,,2013-03-16 21:02:00,
2013-03-16 16:12:00,46.0,38.0,-100.00,SE,135,8.0,16.0,72,-99.99,,,-99.99,,2013-03-16 21:12:00,
2013-03-16 16:22:00,46.0,38.0,-100.00,SE,135,8.0,16.0,72,-99.99,,,-99.99,,2013-03-16 21:22:00,
2013-03-16 16:33:00,45.0,38.0,-100.00,NW,320,6.0,14.0,74,-99.99,,,-99.99,,2013-03-16 21:33:00,
2013-03-16 16:43:00,45.0,37.0,-100.00,NW,320,6.0,14.0,74,-99.99,,,-99.99,,2013-03-16 21:43:00,
2013-03-16 16:52:00,45.0,37.0,-100.00,NW,320,6.0,14.0,74,-99.99,,,-99.99,,2013-03-16 21:52:00,
2013-03-16 17:03:00,45.0,38.0,-100.00,SSE,150,5.0,13.0,75,-99.99,,,-99.99,,2013-03-16 22:03:00,
2013-03-16 17:12:00,45.0,37.0,-100.00,SSE,155,8.0,16.0,74,-99.99,,,-99.99,,2013-03-16 22:12:00,
2013-03-16 17:22:00,45.0,37.0,-100.00,SSE,155,8.0,16.0,74,-99.99,,,-99.99,,2013-03-16 22:22:00,
2013-03-16 17:33:00,45.0,37.0,-100.00,South,190,5.0,11.0,74,-99.99,,,-99.99,,2013-03-16 22:33:00,
2013-03-16 17:42:00,45.0,37.0,-100.00,SE,130,8.0,14.0,73,-99.99,,,-99.99,,2013-03-16 22:42:00,
2013-03-16 17:52:00,45.0,37.0,-100.00,SE,130,8.0,14.0,73,-99.99,,,-99.99,,2013-03-16 22:52:00,
2013-03-16 18:02:00,45.0,37.0,-100.00,NW,320,6.0,14.0,73,-99.99,,,-99.99,,2013-03-16 23:02:00,
2013-03-16 18:13:00,45.0,36.0,-100.00,South,170,10.0,14.0,72,-99.99,,,-99.99,,2013-03-16 23:13:00,
2013-03-16 18:22:00,45.0,36.0,-100.00,South,170,10.0,14.0,72,-99.99,,,-99.99,,2013-03-16 23:22:00,
2013-03-16 18:33:00,46.0,36.0,-100.00,South,175,8.0,14.0,70,-99.99,,,-99.99,,2013-03-16 23:33:00,
2013-03-16 18:42:00,45.0,37.0,-100.00,NW,325,8.0,11.0,72,-99.99,,,-99.99,,2013-03-16 23:42:00,
2013-03-16 18:52:00,45.0,37.0,-100.00,NW,325,8.0,11.0,72,-99.99,,,-99.99,,2013-03-16 23:52:00,
2013-03-16 19:02:00,45.0,36.0,-100.00,NW,325,7.0,14.0,71,-99.99,,,-99.99,,2013-03-17 00:02:00,
2013-03-16 19:12:00,45.0,36.0,-100.00,ESE,120,8.0,17.0,72,-99.99,,,-99.99,,2013-03-17 00:12:00,
2013-03-16 19:22:00,45.0,36.0,-100.00,ESE,120,8.0,17.0,72,-99.99,,,-99.99,,2013-03-17 00:22:00,
2013-03-16 19:32:00,44.0,36.0,-100.00,North,0,5.0,16.0,73,-99.99,,,-99.99,,2013-03-17 00:32:00,
2013-03-16 19:42:00,44.0,36.0,-100.00,NW,320,8.0,14.0,73,-99.99,,,-99.99,,2013-03-17 00:42:00,
2013-03-16 19:52:00,44.0,36.0,-100.00,NW,320,8.0,14.0,73,-99.99,,,-99.99,,2013-03-17 00:52:00,
2013-03-16 20:02:00,44.0,36.0,-100.00,North,0,7.0,13.0,74,-99.99,,,-99.99,,2013-03-17 01:02:00,
2013-03-16 20:12:00,44.0,36.0,-100.00,SE,130,6.0,22.0,74,-99.99,,,-99.99,,2013-03-17 01:12:00,
2013-03-16 20:22:00,44.0,36.0,-100.00,SE,130,6.0,22.0,74,-99.99,,,-99.99,,2013-03-17 01:22:00,
2013-03-16 20:32:00,44.0,36.0,-100.00,NW,320,5.0,12.0,75,-99.99,,,-99.99,,2013-03-17 01:32:00,
2013-03-16 20:42:00,44.0,36.0,-100.00,NW,320,7.0,10.0,75,-99.99,,,-99.99,,2013-03-17 01:42:00,
2013-03-16 20:52:00,44.0,36.0,-100.00,NW,320,7.0,10.0,75,-99.99,,,-99.99,,2013-03-17 01:52:00,
2013-03-16 21:03:00,43.0,36.0,-100.00,NW,325,10.0,16.0,74,-99.99,,,-99.99,,2013-03-17 02:03:00,
2013-03-16 21:13:00,44.0,35.0,-100.00,SSW,195,10.0,14.0,73,-99.99,,,-99.99,,2013-03-17 02:13:00,
2013-03-16 21:22:00,44.0,35.0,-100.00,SSW,195,10.0,14.0,73,-99.99,,,-99.99,,2013-03-17 02:22:00,
2013-03-16 21:33:00,42.0,37.0,-100.00,NW,325,7.0,11.0,81,-99.99,,,-99.99,,2013-03-17 02:33:00,
2013-03-16 21:43:00,42.0,37.0,-100.00,NW,325,9.0,16.0,80,-99.99,,,-99.99,,2013-03-17 02:43:00,
2013-03-16 21:52:00,42.0,37.0,-100.00,NW,325,9.0,16.0,80,-99.99,,,-99.99,,2013-03-17 02:52:00,
2013-03-16 22:02:00,42.0,37.0,-100.00,South,170,12.0,16.0,82,-99.99,,,-99.99,,2013-03-17 03:02:00,
2013-03-16 22:12:00,42.0,36.0,-100.00,NW,320,5.0,17.0,80,-99.99,,,-99.99,,2013-03-17 03:12:00,
2013-03-16 22:22:00,42.0,36.0,-100.00,NW,320,5.0,17.0,80,-99.99,,,-99.99,,2013-03-17 03:22:00,
2013-03-16 22:33:00,41.0,37.0,-100.00,NW,320,4.0,11.0,84,-99.99,,,-99.99,,2013-03-17 03:33:00,
2013-03-16 22:43:00,41.0,37.0,-100.00,South,190,9.0,11.0,87,-99.99,,,-99.99,,2013-03-17 03:43:00,
2013-03-16 22:52:00,41.0,37.0,-100.00,South,190,9.0,11.0,87,-99.99,,,-99.99,,2013-03-17 03:52:00,
2013-03-16 23:03:00,40.0,38.0,-100.00,NW,320,4.0,10.0,92,-99.99,,,-99.99,,2013-03-17 04:03:00,
2013-03-16 23:13:00,40.0,38.0,-100.00,NW,320,5.0,8.0,92,-99.99,,,-99.99,,2013-03-17 04:13:00,
2013-03-16 23:23:00,40.0,38.0,-100.00,NW,320,5.0,8.0,92,-99.99,,,-99.99,,2013-03-17 04:23:00,
2013-03-16 23:32:00,40.0,38.0,-100.00,NW,320,4.0,9.0,92,-99.99,,,-99.99,,2013-03-17 04:32:00,
2013-03-16 23:43:00,40.0,37.0,-100.00,SSE,165,5.0,10.0,92,-99.99,,,-99.99,,2013-03-17 04:43:00,
2013-03-16 23:53:00,40.0,37.0,-100.00,SSE,165,5.0,10.0,92,-99.99,,,-99.99,,2013-03-17 04:53:00,